CA-0443 weather

Brier Island Airstrip
Westport, Nova Scotia, Canada

Public forecast

Using degrees Celsius for public forecast. Weather courtesy of forecast.io.

Closest aviation weather report (METAR) to Brier Island Airstrip

Closest report is Yarmouth Airport, 28.4 nm (52.5 km) SSE. Retrieved 2020/07/14 09:00 UTC (4 minutes ago):

CYQI 140900Z 10005KT 1/8SM FG VV001 17/17 A2985 RMK FG8 SLP111 DENSITY ALT 500FT

Closest aviation forecast (TAF) to Brier Island Airstrip

Closest forecast is Yarmouth Airport, 28.4 nm (52.5 km) SSE. Retrieved 2020/07/14 06:39 UTC (2 hours ago):

TAF TAF CYQI 140538Z 1406/1418 VRB03KT 1/8SM FG VV002 FM141300 VRB03KT 1SM BR OVC003 PROB30 1413/1418 1/2SM FG VV002 RMK NXT FCST BY 141200Z